sensor_id;sensor_type;location;lat;lon;timestamp;pressure;altitude;pressure_sealevel;temperature;humidity
72465;BME280;60471;52.150;4.508;2024-01-25T00:00:48;102529.66;;;9.51;100.00
72465;BME280;60471;52.150;4.508;2024-01-25T00:03:14;102522.59;;;9.53;100.00
72465;BME280;60471;52.150;4.508;2024-01-25T00:05:40;102518.19;;;9.53;100.00
72465;BME280;60471;52.150;4.508;2024-01-25T00:08:07;102522.50;;;9.59;100.00
72465;BME280;60471;52.150;4.508;2024-01-25T00:10:33;102525.38;;;9.44;100.00
72465;BME280;60471;52.150;4.508;2024-01-25T00:12:59;102526.22;;;9.47;100.00
72465;BME280;60471;52.150;4.508;2024-01-25T00:15:25;102514.88;;;9.42;100.00
72465;BME280;60471;52.150;4.508;2024-01-25T00:17:51;102517.34;;;9.51;100.00
72465;BME280;60471;52.150;4.508;2024-01-25T00:20:18;102519.47;;;9.29;100.00
72465;BME280;60471;52.150;4.508;2024-01-25T00:22:44;102521.81;;;9.48;100.00
72465;BME280;60471;52.150;4.508;2024-01-25T00:25:11;102520.34;;;9.30;100.00
72465;BME280;60471;52.150;4.508;2024-01-25T00:27:37;102525.59;;;9.30;100.00
72465;BME280;60471;52.150;4.508;2024-01-25T00:30:03;102517.56;;;9.39;100.00
72465;BME280;60471;52.150;4.508;2024-01-25T00:32:30;102521.03;;;9.41;100.00
72465;BME280;60471;52.150;4.508;2024-01-25T00:34:57;102529.13;;;9.29;100.00
72465;BME280;60471;52.150;4.508;2024-01-25T00:37:23;102522.91;;;9.33;100.00
72465;BME280;60471;52.150;4.508;2024-01-25T00:39:50;102522.88;;;9.36;100.00
72465;BME280;60471;52.150;4.508;2024-01-25T00:42:21;102514.25;;;9.26;100.00
72465;BME280;60471;52.150;4.508;2024-01-25T00:44:48;102511.72;;;9.19;100.00
72465;BME280;60471;52.150;4.508;2024-01-25T00:47:15;102502.84;;;9.26;100.00
72465;BME280;60471;52.150;4.508;2024-01-25T00:49:42;102514.13;;;9.36;100.00
72465;BME280;60471;52.150;4.508;2024-01-25T00:52:08;102517.00;;;9.19;100.00
72465;BME280;60471;52.150;4.508;2024-01-25T00:54:35;102520.28;;;9.33;100.00
72465;BME280;60471;52.150;4.508;2024-01-25T00:57:02;102508.94;;;9.29;100.00
72465;BME280;60471;52.150;4.508;2024-01-25T00:59:29;102518.56;;;9.34;100.00
72465;BME280;60471;52.150;4.508;2024-01-25T01:01:56;102523.97;;;9.21;100.00
72465;BME280;60471;52.150;4.508;2024-01-25T01:04:25;102521.22;;;9.29;100.00
72465;BME280;60471;52.150;4.508;2024-01-25T01:06:52;102518.72;;;9.21;100.00
72465;BME280;60471;52.150;4.508;2024-01-25T01:09:18;102532.66;;;9.28;100.00
72465;BME280;60471;52.150;4.508;2024-01-25T01:11:45;102536.91;;;9.38;100.00
72465;BME280;60471;52.150;4.508;2024-01-25T01:14:11;102548.38;;;9.33;100.00
72465;BME280;60471;52.150;4.508;2024-01-25T01:16:38;102548.41;;;9.31;100.00
72465;BME280;60471;52.150;4.508;2024-01-25T01:19:04;102554.59;;;9.30;100.00
72465;BME280;60471;52.150;4.508;2024-01-25T01:21:33;102557.19;;;9.32;100.00
72465;BME280;60471;52.150;4.508;2024-01-25T01:24:00;102559.88;;;9.28;100.00
72465;BME280;60471;52.150;4.508;2024-01-25T01:26:27;102564.22;;;9.31;100.00
72465;BME280;60471;52.150;4.508;2024-01-25T01:28:53;102565.97;;;9.32;100.00
72465;BME280;60471;52.150;4.508;2024-01-25T01:31:19;102574.66;;;9.39;100.00
72465;BME280;60471;52.150;4.508;2024-01-25T01:33:46;102573.06;;;9.27;100.00
72465;BME280;60471;52.150;4.508;2024-01-25T01:36:13;102588.03;;;9.25;100.00
72465;BME280;60471;52.150;4.508;2024-01-25T01:38:40;102588.78;;;9.33;100.00
72465;BME280;60471;52.150;4.508;2024-01-25T01:41:06;102592.31;;;9.32;100.00
72465;BME280;60471;52.150;4.508;2024-01-25T01:43:32;102595.97;;;9.23;100.00
72465;BME280;60471;52.150;4.508;2024-01-25T01:46:06;102588.94;;;9.22;100.00
72465;BME280;60471;52.150;4.508;2024-01-25T01:48:40;102588.94;;;9.24;100.00
72465;BME280;60471;52.150;4.508;2024-01-25T01:51:08;102587.03;;;9.32;100.00
72465;BME280;60471;52.150;4.508;2024-01-25T01:53:35;102596.69;;;9.32;100.00
72465;BME280;60471;52.150;4.508;2024-01-25T01:56:02;102595.09;;;9.21;100.00
72465;BME280;60471;52.150;4.508;2024-01-25T01:58:30;102605.59;;;9.24;100.00
72465;BME280;60471;52.150;4.508;2024-01-25T02:00:59;102591.50;;;9.27;100.00
72465;BME280;60471;52.150;4.508;2024-01-25T02:03:25;102593.47;;;9.11;100.00
72465;BME280;60471;52.150;4.508;2024-01-25T02:05:52;102596.16;;;9.08;100.00
72465;BME280;60471;52.150;4.508;2024-01-25T02:08:18;102587.38;;;9.09;100.00
72465;BME280;60471;52.150;4.508;2024-01-25T02:10:44;102599.63;;;9.10;100.00
72465;BME280;60471;52.150;4.508;2024-01-25T02:13:10;102589.13;;;9.12;100.00
72465;BME280;60471;52.150;4.508;2024-01-25T02:15:36;102591.78;;;9.07;100.00
72465;BME280;60471;52.150;4.508;2024-01-25T02:18:03;102592.66;;;9.08;100.00
72465;BME280;60471;52.150;4.508;2024-01-25T02:20:29;102587.47;;;9.00;100.00
72465;BME280;60471;52.150;4.508;2024-01-25T02:22:56;102592.75;;;9.02;100.00
72465;BME280;60471;52.150;4.508;2024-01-25T02:25:22;102582.28;;;8.95;100.00
72465;BME280;60471;52.150;4.508;2024-01-25T02:27:48;102592.88;;;8.92;100.00
72465;BME280;60471;52.150;4.508;2024-01-25T02:30:15;102590.97;;;9.04;100.00
72465;BME280;60471;52.150;4.508;2024-01-25T02:32:43;102584.06;;;8.95;100.00
72465;BME280;60471;52.150;4.508;2024-01-25T02:35:09;102588.34;;;9.04;100.00
72465;BME280;60471;52.150;4.508;2024-01-25T02:37:36;102595.38;;;9.02;100.00
72465;BME280;60471;52.150;4.508;2024-01-25T02:40:02;102594.50;;;8.99;100.00
72465;BME280;60471;52.150;4.508;2024-01-25T02:42:29;102594.50;;;9.03;100.00
72465;BME280;60471;52.150;4.508;2024-01-25T02:44:55;102596.31;;;8.97;100.00
72465;BME280;60471;52.150;4.508;2024-01-25T02:47:22;102606.06;;;8.88;100.00
72465;BME280;60471;52.150;4.508;2024-01-25T02:49:48;102600.81;;;8.88;100.00
72465;BME280;60471;52.150;4.508;2024-01-25T02:52:14;102604.28;;;8.91;100.00
72465;BME280;60471;52.150;4.508;2024-01-25T02:54:40;102610.44;;;8.92;100.00
72465;BME280;60471;52.150;4.508;2024-01-25T02:57:06;102608.69;;;8.91;100.00
72465;BME280;60471;52.150;4.508;2024-01-25T02:59:33;102607.94;;;8.81;100.00
72465;BME280;60471;52.150;4.508;2024-01-25T03:01:59;102611.44;;;8.79;100.00
72465;BME280;60471;52.150;4.508;2024-01-25T03:04:25;102606.22;;;8.76;100.00
72465;BME280;60471;52.150;4.508;2024-01-25T03:06:51;102607.09;;;8.79;100.00
72465;BME280;60471;52.150;4.508;2024-01-25T03:09:18;102604.47;;;8.76;100.00
72465;BME280;60471;52.150;4.508;2024-01-25T03:11:44;102608.84;;;8.77;100.00
72465;BME280;60471;52.150;4.508;2024-01-25T03:14:10;102610.56;;;8.81;100.00
72465;BME280;60471;52.150;4.508;2024-01-25T03:16:36;102604.63;;;8.64;100.00
72465;BME280;60471;52.150;4.508;2024-01-25T03:19:02;102613.50;;;8.54;100.00
72465;BME280;60471;52.150;4.508;2024-01-25T03:21:28;102613.53;;;8.52;100.00
72465;BME280;60471;52.150;4.508;2024-01-25T03:23:55;102616.97;;;8.56;100.00
72465;BME280;60471;52.150;4.508;2024-01-25T03:26:21;102611.91;;;8.40;100.00
72465;BME280;60471;52.150;4.508;2024-01-25T03:28:47;102609.09;;;8.54;100.00
72465;BME280;60471;52.150;4.508;2024-01-25T03:31:13;102614.47;;;8.47;100.00
72465;BME280;60471;52.150;4.508;2024-01-25T03:33:39;102624.09;;;8.49;100.00
72465;BME280;60471;52.150;4.508;2024-01-25T03:36:06;102612.72;;;8.44;100.00
72465;BME280;60471;52.150;4.508;2024-01-25T03:38:32;102609.22;;;8.47;100.00
72465;BME280;60471;52.150;4.508;2024-01-25T03:40:58;102607.38;;;8.52;100.00
72465;BME280;60471;52.150;4.508;2024-01-25T03:43:25;102608.34;;;8.45;100.00
72465;BME280;60471;52.150;4.508;2024-01-25T03:45:52;102606.72;;;8.30;100.00
72465;BME280;60471;52.150;4.508;2024-01-25T03:48:18;102613.66;;;8.34;100.00
72465;BME280;60471;52.150;4.508;2024-01-25T03:50:44;102609.28;;;8.39;100.00
72465;BME280;60471;52.150;4.508;2024-01-25T03:53:10;102607.53;;;8.39;100.00
72465;BME280;60471;52.150;4.508;2024-01-25T03:55:37;102604.91;;;8.33;100.00
72465;BME280;60471;52.150;4.508;2024-01-25T03:58:03;102606.72;;;8.28;100.00
72465;BME280;60471;52.150;4.508;2024-01-25T04:00:29;102593.63;;;8.25;100.00
72465;BME280;60471;52.150;4.508;2024-01-25T04:02:55;102596.16;;;8.36;100.00
72465;BME280;60471;52.150;4.508;2024-01-25T04:05:22;102606.59;;;8.47;100.00
72465;BME280;60471;52.150;4.508;2024-01-25T04:07:48;102615.41;;;8.39;100.00
72465;BME280;60471;52.150;4.508;2024-01-25T04:10:14;102622.47;;;8.36;100.00
72465;BME280;60471;52.150;4.508;2024-01-25T04:12:40;102616.53;;;8.09;100.00
72465;BME280;60471;52.150;4.508;2024-01-25T04:15:07;102615.63;;;8.15;100.00
72465;BME280;60471;52.150;4.508;2024-01-25T04:17:33;102601.44;;;8.30;100.00
72465;BME280;60471;52.150;4.508;2024-01-25T04:19:59;102591.78;;;8.32;100.00
72465;BME280;60471;52.150;4.508;2024-01-25T04:22:26;102600.56;;;8.31;100.00
72465;BME280;60471;52.150;4.508;2024-01-25T04:24:52;102605.78;;;8.35;100.00
72465;BME280;60471;52.150;4.508;2024-01-25T04:27:18;102604.19;;;8.19;100.00
72465;BME280;60471;52.150;4.508;2024-01-25T04:29:44;102597.28;;;8.09;100.00
72465;BME280;60471;52.150;4.508;2024-01-25T04:32:12;102606.16;;;7.96;100.00
72465;BME280;60471;52.150;4.508;2024-01-25T04:34:38;102608.84;;;7.87;100.00
72465;BME280;60471;52.150;4.508;2024-01-25T04:37:04;102607.13;;;7.85;100.00
72465;BME280;60471;52.150;4.508;2024-01-25T04:39:31;102614.09;;;7.88;100.00
72465;BME280;60471;52.150;4.508;2024-01-25T04:41:57;102618.34;;;8.01;100.00
72465;BME280;60471;52.150;4.508;2024-01-25T04:44:23;102616.72;;;7.93;100.00
72465;BME280;60471;52.150;4.508;2024-01-25T04:46:49;102611.53;;;7.83;100.00
72465;BME280;60471;52.150;4.508;2024-01-25T04:49:18;102606.28;;;7.82;100.00
72465;BME280;60471;52.150;4.508;2024-01-25T04:51:44;102594.88;;;7.80;100.00
72465;BME280;60471;52.150;4.508;2024-01-25T04:54:10;102604.50;;;7.85;100.00
72465;BME280;60471;52.150;4.508;2024-01-25T04:56:38;102600.91;;;7.91;100.00
72465;BME280;60471;52.150;4.508;2024-01-25T04:59:05;102609.66;;;7.95;100.00
72465;BME280;60471;52.150;4.508;2024-01-25T05:01:31;102609.56;;;8.07;100.00
72465;BME280;60471;52.150;4.508;2024-01-25T05:03:57;102608.66;;;8.08;100.00
72465;BME280;60471;52.150;4.508;2024-01-25T05:06:23;102597.22;;;8.15;100.00
72465;BME280;60471;52.150;4.508;2024-01-25T05:08:49;102610.28;;;8.21;100.00
72465;BME280;60471;52.150;4.508;2024-01-25T05:11:15;102611.19;;;8.19;100.00
72465;BME280;60471;52.150;4.508;2024-01-25T05:13:42;102621.78;;;8.14;100.00
72465;BME280;60471;52.150;4.508;2024-01-25T05:16:08;102632.38;;;8.03;100.00
72465;BME280;60471;52.150;4.508;2024-01-25T05:18:34;102635.97;;;7.93;100.00
72465;BME280;60471;52.150;4.508;2024-01-25T05:21:00;102636.06;;;7.82;100.00
72465;BME280;60471;52.150;4.508;2024-01-25T05:23:27;102628.97;;;7.91;100.00
72465;BME280;60471;52.150;4.508;2024-01-25T05:25:53;102636.03;;;7.81;100.00
72465;BME280;60471;52.150;4.508;2024-01-25T05:28:19;102645.66;;;7.85;100.00
72465;BME280;60471;52.150;4.508;2024-01-25T05:30:45;102656.22;;;7.79;100.00
72465;BME280;60471;52.150;4.508;2024-01-25T05:33:11;102658.03;;;7.72;100.00
72465;BME280;60471;52.150;4.508;2024-01-25T05:35:38;102650.97;;;7.82;100.00
72465;BME280;60471;52.150;4.508;2024-01-25T05:38:04;102648.25;;;7.88;100.00
72465;BME280;60471;52.150;4.508;2024-01-25T05:40:30;102642.19;;;7.83;100.00
72465;BME280;60471;52.150;4.508;2024-01-25T05:42:56;102647.44;;;7.83;100.00
72465;BME280;60471;52.150;4.508;2024-01-25T05:45:22;102638.72;;;7.75;100.00
72465;BME280;60471;52.150;4.508;2024-01-25T05:47:50;102635.19;;;7.77;100.00
72465;BME280;60471;52.150;4.508;2024-01-25T05:50:16;102629.09;;;7.77;100.00
72465;BME280;60471;52.150;4.508;2024-01-25T05:52:42;102637.72;;;7.91;100.00
72465;BME280;60471;52.150;4.508;2024-01-25T05:55:09;102643.94;;;7.79;100.00
72465;BME280;60471;52.150;4.508;2024-01-25T05:57:36;102636.84;;;7.91;100.00
72465;BME280;60471;52.150;4.508;2024-01-25T06:00:03;102641.25;;;7.89;100.00
72465;BME280;60471;52.150;4.508;2024-01-25T06:02:31;102640.38;;;7.93;100.00
72465;BME280;60471;52.150;4.508;2024-01-25T06:04:57;102640.41;;;7.87;100.00
72465;BME280;60471;52.150;4.508;2024-01-25T06:07:25;102640.38;;;7.90;100.00
72465;BME280;60471;52.150;4.508;2024-01-25T06:09:52;102637.63;;;8.02;100.00
72465;BME280;60471;52.150;4.508;2024-01-25T06:12:18;102637.72;;;7.91;100.00
72465;BME280;60471;52.150;4.508;2024-01-25T06:14:45;102652.72;;;7.81;100.00
72465;BME280;60471;52.150;4.508;2024-01-25T06:17:11;102659.72;;;7.79;100.00
72465;BME280;60471;52.150;4.508;2024-01-25T06:19:37;102656.19;;;7.85;100.00
72465;BME280;60471;52.150;4.508;2024-01-25T06:22:03;102656.19;;;7.85;100.00
72465;BME280;60471;52.150;4.508;2024-01-25T06:24:30;102655.41;;;7.71;100.00
72465;BME280;60471;52.150;4.508;2024-01-25T06:26:56;102650.13;;;7.75;100.00
72465;BME280;60471;52.150;4.508;2024-01-25T06:29:22;102656.31;;;7.65;100.00
72465;BME280;60471;52.150;4.508;2024-01-25T06:31:49;102651.00;;;7.76;100.00
72465;BME280;60471;52.150;4.508;2024-01-25T06:34:15;102644.81;;;7.84;100.00
72465;BME280;60471;52.150;4.508;2024-01-25T06:36:41;102646.63;;;7.70;100.00
72465;BME280;60471;52.150;4.508;2024-01-25T06:39:07;102650.97;;;7.79;100.00
72465;BME280;60471;52.150;4.508;2024-01-25T06:41:34;102654.41;;;7.85;100.00
72465;BME280;60471;52.150;4.508;2024-01-25T06:44:00;102642.28;;;7.66;100.00
72465;BME280;60471;52.150;4.508;2024-01-25T06:46:26;102637.94;;;7.62;100.00
72465;BME280;60471;52.150;4.508;2024-01-25T06:48:53;102642.41;;;7.46;100.00
72465;BME280;60471;52.150;4.508;2024-01-25T06:51:19;102634.47;;;7.55;100.00
72465;BME280;60471;52.150;4.508;2024-01-25T06:53:45;102638.03;;;7.47;100.00
72465;BME280;60471;52.150;4.508;2024-01-25T06:56:11;102638.94;;;7.44;100.00
72465;BME280;60471;52.150;4.508;2024-01-25T06:58:37;102634.53;;;7.49;100.00
72465;BME280;60471;52.150;4.508;2024-01-25T07:01:04;102646.81;;;7.43;100.00
72465;BME280;60471;52.150;4.508;2024-01-25T07:03:30;102654.75;;;7.32;100.00
72465;BME280;60471;52.150;4.508;2024-01-25T07:05:56;102646.97;;;7.18;100.00
72465;BME280;60471;52.150;4.508;2024-01-25T07:08:22;102648.66;;;7.27;100.00
72465;BME280;60471;52.150;4.508;2024-01-25T07:10:50;102652.16;;;7.29;100.00
72465;BME280;60471;52.150;4.508;2024-01-25T07:13:16;102653.97;;;7.13;100.00
72465;BME280;60471;52.150;4.508;2024-01-25T07:15:42;102654.06;;;6.95;100.00
72465;BME280;60471;52.150;4.508;2024-01-25T07:18:08;102656.69;;;6.90;100.00
72465;BME280;60471;52.150;4.508;2024-01-25T07:20:35;102659.31;;;6.96;100.00
72465;BME280;60471;52.150;4.508;2024-01-25T07:23:01;102662.78;;;6.94;100.00
72465;BME280;60471;52.150;4.508;2024-01-25T07:25:27;102662.88;;;6.77;100.00
72465;BME280;60471;52.150;4.508;2024-01-25T07:27:53;102664.59;;;6.86;100.00
72465;BME280;60471;52.150;4.508;2024-01-25T07:30:20;102666.34;;;6.85;100.00
72465;BME280;60471;52.150;4.508;2024-01-25T07:32:46;102674.22;;;6.79;100.00
72465;BME280;60471;52.150;4.508;2024-01-25T07:35:12;102670.75;;;6.76;100.00
72465;BME280;60471;52.150;4.508;2024-01-25T07:37:39;102660.22;;;6.73;100.00
72465;BME280;60471;52.150;4.508;2024-01-25T07:40:08;102662.84;;;6.73;100.00
72465;BME280;60471;52.150;4.508;2024-01-25T07:42:35;102665.50;;;6.68;100.00
72465;BME280;60471;52.150;4.508;2024-01-25T07:45:01;102664.63;;;6.71;100.00
72465;BME280;60471;52.150;4.508;2024-01-25T07:47:27;102667.22;;;6.72;100.00
72465;BME280;60471;52.150;4.508;2024-01-25T07:49:54;102661.97;;;6.80;100.00
72465;BME280;60471;52.150;4.508;2024-01-25T07:52:20;102669.84;;;6.72;100.00
72465;BME280;60471;52.150;4.508;2024-01-25T07:54:46;102668.13;;;6.69;100.00
72465;BME280;60471;52.150;4.508;2024-01-25T07:57:12;102669.00;;;6.75;100.00
72465;BME280;60471;52.150;4.508;2024-01-25T07:59:38;102674.22;;;6.84;100.00
72465;BME280;60471;52.150;4.508;2024-01-25T08:02:05;102662.88;;;6.69;100.00
72465;BME280;60471;52.150;4.508;2024-01-25T08:04:31;102658.47;;;6.81;100.00
72465;BME280;60471;52.150;4.508;2024-01-25T08:06:58;102652.28;;;6.98;100.00
72465;BME280;60471;52.150;4.508;2024-01-25T08:09:24;102643.44;;;7.22;100.00
72465;BME280;60471;52.150;4.508;2024-01-25T08:11:50;102632.97;;;7.18;100.00
72465;BME280;60471;52.150;4.508;2024-01-25T08:14:17;102632.91;;;7.25;100.00
72465;BME280;60471;52.150;4.508;2024-01-25T08:16:44;102641.69;;;7.23;100.00
72465;BME280;60471;52.150;4.508;2024-01-25T08:19:10;102644.25;;;7.32;100.00
72465;BME280;60471;52.150;4.508;2024-01-25T08:21:36;102652.13;;;7.34;100.00
72465;BME280;60471;52.150;4.508;2024-01-25T08:24:03;102653.84;;;7.42;100.00
72465;BME280;60471;52.150;4.508;2024-01-25T08:26:30;102657.28;;;7.52;100.00
72465;BME280;60471;52.150;4.508;2024-01-25T08:28:56;102665.94;;;7.65;100.00
72465;BME280;60471;52.150;4.508;2024-01-25T08:31:22;102658.97;;;7.62;100.00
72465;BME280;60471;52.150;4.508;2024-01-25T08:33:48;102659.06;;;7.50;100.00
72465;BME280;60471;52.150;4.508;2024-01-25T08:36:18;102653.72;;;7.57;100.00
72465;BME280;60471;52.150;4.508;2024-01-25T08:38:48;102657.31;;;7.49;100.00
72465;BME280;60471;52.150;4.508;2024-01-25T08:41:14;102654.69;;;7.46;100.00
72465;BME280;60471;52.150;4.508;2024-01-25T08:43:42;102656.47;;;7.42;100.00
72465;BME280;60471;52.150;4.508;2024-01-25T08:46:08;102666.06;;;7.46;100.00
72465;BME280;60471;52.150;4.508;2024-01-25T08:48:34;102659.03;;;7.51;100.00
72465;BME280;60471;52.150;4.508;2024-01-25T08:51:00;102663.50;;;7.39;100.00
72465;BME280;60471;52.150;4.508;2024-01-25T08:53:27;102666.88;;;7.57;100.00
72465;BME280;60471;52.150;4.508;2024-01-25T08:55:54;102659.81;;;7.67;100.00
72465;BME280;60471;52.150;4.508;2024-01-25T08:58:21;102644.88;;;7.74;100.00
72465;BME280;60471;52.150;4.508;2024-01-25T09:00:47;102647.34;;;7.95;100.00
72465;BME280;60471;52.150;4.508;2024-01-25T09:03:14;102647.47;;;7.78;100.00
72465;BME280;60471;52.150;4.508;2024-01-25T09:05:41;102647.41;;;7.86;100.00
72465;BME280;60471;52.150;4.508;2024-01-25T09:08:12;102637.69;;;7.96;100.00
72465;BME280;60471;52.150;4.508;2024-01-25T09:10:40;102638.38;;;8.18;100.00
72465;BME280;60471;52.150;4.508;2024-01-25T09:13:08;102634.13;;;8.01;100.00
72465;BME280;60471;52.150;4.508;2024-01-25T09:15:34;102629.00;;;7.88;100.00
72465;BME280;60471;52.150;4.508;2024-01-25T09:18:01;102629.75;;;8.00;100.00
72465;BME280;60471;52.150;4.508;2024-01-25T09:20:27;102615.72;;;8.01;100.00
72465;BME280;60471;52.150;4.508;2024-01-25T09:22:53;102627.03;;;8.11;100.00
72465;BME280;60471;52.150;4.508;2024-01-25T09:25:21;102608.53;;;8.22;100.00
72465;BME280;60471;52.150;4.508;2024-01-25T09:27:47;102606.78;;;8.25;100.00
72465;BME280;60471;52.150;4.508;2024-01-25T09:30:14;102614.66;;;8.24;100.00
72465;BME280;60471;52.150;4.508;2024-01-25T09:32:41;102623.31;;;8.38;100.00
72465;BME280;60471;52.150;4.508;2024-01-25T09:35:07;102627.66;;;8.42;100.00
72465;BME280;60471;52.150;4.508;2024-01-25T09:37:33;102626.06;;;8.21;100.00
72465;BME280;60471;52.150;4.508;2024-01-25T09:40:02;102616.19;;;8.49;100.00
72465;BME280;60471;52.150;4.508;2024-01-25T09:42:29;102619.50;;;8.65;100.00
72465;BME280;60471;52.150;4.508;2024-01-25T09:44:56;102625.53;;;8.76;100.00
72465;BME280;60471;52.150;4.508;2024-01-25T09:47:22;102621.84;;;8.89;100.00
72465;BME280;60471;52.150;4.508;2024-01-25T09:49:49;102619.38;;;8.76;100.00
72465;BME280;60471;52.150;4.508;2024-01-25T09:52:16;102628.19;;;8.75;100.00
72465;BME280;60471;52.150;4.508;2024-01-25T09:54:50;102631.50;;;8.92;100.00
72465;BME280;60471;52.150;4.508;2024-01-25T09:57:21;102629.13;;;8.69;100.00
72465;BME280;60471;52.150;4.508;2024-01-25T09:59:49;102625.66;;;8.65;100.00
72465;BME280;60471;52.150;4.508;2024-01-25T10:02:21;102625.75;;;8.56;100.00
72465;BME280;60471;52.150;4.508;2024-01-25T10:04:49;102629.44;;;8.40;100.00
72465;BME280;60471;52.150;4.508;2024-01-25T10:07:39;102630.34;;;8.34;100.00
72465;BME280;60471;52.150;4.508;2024-01-25T10:10:07;102621.47;;;8.45;100.00
72465;BME280;60471;52.150;4.508;2024-01-25T10:12:34;102620.59;;;8.49;100.00
72465;BME280;60471;52.150;4.508;2024-01-25T10:15:03;102619.59;;;8.57;100.00
72465;BME280;60471;52.150;4.508;2024-01-25T10:17:30;102622.19;;;8.62;100.00
72465;BME280;60471;52.150;4.508;2024-01-25T10:19:57;102635.16;;;8.77;100.00
72465;BME280;60471;52.150;4.508;2024-01-25T10:22:23;102631.47;;;8.93;100.00
72465;BME280;60471;52.150;4.508;2024-01-25T10:24:49;102632.09;;;9.11;100.00
72465;BME280;60471;52.150;4.508;2024-01-25T10:27:16;102618.16;;;9.04;100.00
72465;BME280;60471;52.150;4.508;2024-01-25T10:29:43;102627.19;;;8.85;100.00
72465;BME280;60471;52.150;4.508;2024-01-25T10:32:11;102619.47;;;8.69;100.00
72465;BME280;60471;52.150;4.508;2024-01-25T10:34:38;102623.06;;;8.62;100.00
72465;BME280;60471;52.150;4.508;2024-01-25T10:37:06;102627.47;;;8.60;100.00
72465;BME280;60471;52.150;4.508;2024-01-25T10:39:33;102627.50;;;8.59;100.00
72465;BME280;60471;52.150;4.508;2024-01-25T10:42:00;102640.78;;;8.47;100.00
72465;BME280;60471;52.150;4.508;2024-01-25T10:44:26;102632.72;;;8.60;100.00
72465;BME280;60471;52.150;4.508;2024-01-25T10:46:53;102613.41;;;8.61;100.00
72465;BME280;60471;52.150;4.508;2024-01-25T10:49:22;102612.44;;;8.71;100.00
72465;BME280;60471;52.150;4.508;2024-01-25T10:51:49;102612.50;;;8.65;100.00
72465;BME280;60471;52.150;4.508;2024-01-25T10:54:16;102584.25;;;8.80;100.00
72465;BME280;60471;52.150;4.508;2024-01-25T10:56:43;102595.94;;;8.56;100.00
72465;BME280;60471;52.150;4.508;2024-01-25T10:59:13;102588.88;;;8.61;100.00
72465;BME280;60471;52.150;4.508;2024-01-25T11:01:46;102588.78;;;8.68;100.00
72465;BME280;60471;52.150;4.508;2024-01-25T11:04:15;102599.38;;;8.62;100.00
72465;BME280;60471;52.150;4.508;2024-01-25T11:06:44;102594.00;;;8.71;100.00
72465;BME280;60471;52.150;4.508;2024-01-25T11:09:20;102593.03;;;8.80;100.00
72465;BME280;60471;52.150;4.508;2024-01-25T11:11:48;102581.47;;;8.92;100.00
72465;BME280;60471;52.150;4.508;2024-01-25T11:14:15;102593.84;;;8.84;100.00
72465;BME280;60471;52.150;4.508;2024-01-25T11:16:44;102596.25;;;9.02;100.00
72465;BME280;60471;52.150;4.508;2024-01-25T11:19:21;102590.91;;;9.08;100.00
72465;BME280;60471;52.150;4.508;2024-01-25T11:21:49;102589.22;;;9.04;100.00
72465;BME280;60471;52.150;4.508;2024-01-25T11:24:20;102589.44;;;8.86;100.00
72465;BME280;60471;52.150;4.508;2024-01-25T11:26:48;102576.28;;;8.84;100.00
72465;BME280;60471;52.150;4.508;2024-01-25T11:29:16;102567.28;;;9.04;100.00
72465;BME280;60471;52.150;4.508;2024-01-25T11:31:44;102558.31;;;9.17;100.00
72465;BME280;60471;52.150;4.508;2024-01-25T11:34:11;102548.69;;;9.14;100.00
72465;BME280;60471;52.150;4.508;2024-01-25T11:36:39;102547.22;;;8.93;100.00
72465;BME280;60471;52.150;4.508;2024-01-25T11:39:05;102553.16;;;9.08;100.00
72465;BME280;60471;52.150;4.508;2024-01-25T11:41:33;102550.41;;;9.17;100.00
72465;BME280;60471;52.150;4.508;2024-01-25T11:44:03;102531.44;;;9.50;100.00
72465;BME280;60471;52.150;4.508;2024-01-25T11:46:30;102519.16;;;10.00;100.00
72465;BME280;60471;52.150;4.508;2024-01-25T11:48:59;102507.47;;;10.13;100.00
72465;BME280;60471;52.150;4.508;2024-01-25T11:51:26;102508.16;;;10.25;100.00
72465;BME280;60471;52.150;4.508;2024-01-25T11:53:52;102512.00;;;10.52;100.00
72465;BME280;60471;52.150;4.508;2024-01-25T11:56:26;102509.78;;;10.30;100.00
72465;BME280;60471;52.150;4.508;2024-01-25T11:58:54;102497.06;;;10.06;100.00
72465;BME280;60471;52.150;4.508;2024-01-25T12:01:24;102491.72;;;10.09;100.00
72465;BME280;60471;52.150;4.508;2024-01-25T12:03:51;102486.06;;;10.29;100.00
72465;BME280;60471;52.150;4.508;2024-01-25T12:06:18;102485.38;;;10.17;100.00
72465;BME280;60471;52.150;4.508;2024-01-25T12:08:44;102486.34;;;10.15;100.00
72465;BME280;60471;52.150;4.508;2024-01-25T12:11:12;102469.94;;;9.99;100.00
72465;BME280;60471;52.150;4.508;2024-01-25T12:13:39;102470.06;;;9.93;100.00
72465;BME280;60471;52.150;4.508;2024-01-25T12:16:08;102469.41;;;9.80;100.00
72465;BME280;60471;52.150;4.508;2024-01-25T12:18:35;102466.16;;;10.12;100.00
72465;BME280;60471;52.150;4.508;2024-01-25T12:21:05;102461.00;;;10.06;100.00
72465;BME280;60471;52.150;4.508;2024-01-25T12:23:38;102456.94;;;9.90;100.00
72465;BME280;60471;52.150;4.508;2024-01-25T12:26:07;102452.00;;;9.72;100.00
72465;BME280;60471;52.150;4.508;2024-01-25T12:28:34;102448.84;;;9.51;100.00
72465;BME280;60471;52.150;4.508;2024-01-25T12:31:02;102439.81;;;9.66;100.00
72465;BME280;60471;52.150;4.508;2024-01-25T12:33:30;102434.38;;;9.74;100.00
72465;BME280;60471;52.150;4.508;2024-01-25T12:35:57;102425.53;;;9.76;100.00
72465;BME280;60471;52.150;4.508;2024-01-25T12:38:24;102423.41;;;9.95;100.00
72465;BME280;60471;52.150;4.508;2024-01-25T12:40:52;102411.06;;;9.99;100.00
72465;BME280;60471;52.150;4.508;2024-01-25T12:43:19;102410.63;;;10.18;100.00
72465;BME280;60471;52.150;4.508;2024-01-25T12:45:47;102413.31;;;10.17;100.00
72465;BME280;60471;52.150;4.508;2024-01-25T12:48:14;102408.91;;;10.17;100.00